createdAt,value
2022-11-19T00:01:53.495Z,47.98
2022-11-19T00:04:20.219Z,48.10
2022-11-19T00:06:46.806Z,48.09
2022-11-19T00:09:14.682Z,48.20
2022-11-19T00:12:00.212Z,48.00
2022-11-19T00:14:27.005Z,48.06
2022-11-19T00:16:53.687Z,47.88
2022-11-19T00:19:20.653Z,48.35
2022-11-19T00:21:48.865Z,48.15
2022-11-19T00:24:15.482Z,48.10
2022-11-19T00:26:42.179Z,47.94
2022-11-19T00:29:14.226Z,48.04
2022-11-19T00:31:43.385Z,47.92
2022-11-19T00:34:10.774Z,48.23
2022-11-19T00:36:37.503Z,48.33
2022-11-19T00:39:04.171Z,47.98
2022-11-19T00:41:30.768Z,48.00
2022-11-19T00:43:57.392Z,48.17
2022-11-19T00:46:25.099Z,48.16
2022-11-19T00:48:52.687Z,47.78
2022-11-19T00:51:19.983Z,48.07
2022-11-19T00:53:47.068Z,48.00
2022-11-19T00:56:15.063Z,47.81
2022-11-19T00:58:41.990Z,47.65
2022-11-19T01:01:09.174Z,47.60
2022-11-19T01:03:36.280Z,48.01
2022-11-19T01:06:03.412Z,47.74
2022-11-19T01:08:30.091Z,48.49
2022-11-19T01:10:56.756Z,48.19
2022-11-19T01:13:35.391Z,48.29
2022-11-19T01:16:13.293Z,48.36
2022-11-19T01:18:40.947Z,47.87
2022-11-19T01:21:08.350Z,47.48
2022-11-19T01:23:35.014Z,47.56
2022-11-19T01:26:01.784Z,47.32
2022-11-19T01:28:28.758Z,47.64
2022-11-19T01:30:55.461Z,47.57
2022-11-19T01:33:22.796Z,47.27
2022-11-19T01:35:56.415Z,47.45
2022-11-19T01:38:23.114Z,47.81
2022-11-19T01:40:49.793Z,47.78
2022-11-19T01:43:16.368Z,47.62
2022-11-19T01:45:49.065Z,48.03
2022-11-19T01:48:24.427Z,48.11
2022-11-19T01:50:51.005Z,47.99
2022-11-19T01:53:19.486Z,48.11
2022-11-19T01:55:47.143Z,48.43
2022-11-19T01:58:15.879Z,48.88
2022-11-19T02:00:42.586Z,48.84
2022-11-19T02:03:10.301Z,48.88
2022-11-19T02:05:37.367Z,48.56
2022-11-19T02:08:06.377Z,48.89
2022-11-19T02:10:53.045Z,48.67
2022-11-19T02:13:25.625Z,48.62
2022-11-19T02:15:55.755Z,48.81
2022-11-19T02:18:34.725Z,48.74
2022-11-19T02:21:08.712Z,48.37
2022-11-19T02:23:52.593Z,48.53
2022-11-19T02:26:25.165Z,48.65
2022-11-19T02:28:53.643Z,48.19
2022-11-19T02:31:24.205Z,48.37
2022-11-19T02:34:00.300Z,48.60
2022-11-19T02:36:47.302Z,48.64
2022-11-19T02:39:36.546Z,48.68
2022-11-19T02:42:09.085Z,48.65
2022-11-19T02:44:56.958Z,48.35
2022-11-19T02:47:39.301Z,47.83
2022-11-19T02:50:11.796Z,48.10
2022-11-19T02:52:41.249Z,48.37
2022-11-19T02:55:08.212Z,48.38
2022-11-19T02:57:35.556Z,48.24
2022-11-19T03:00:36.629Z,48.12
2022-11-19T03:03:24.218Z,48.38
2022-11-19T03:05:57.086Z,48.04
2022-11-19T03:08:24.144Z,48.46
2022-11-19T03:11:10.591Z,48.20
2022-11-19T03:14:01.807Z,48.39
2022-11-19T03:16:42.401Z,48.14
2022-11-19T03:19:08.980Z,48.08
2022-11-19T03:21:38.798Z,47.94
2022-11-19T03:24:07.537Z,48.04
2022-11-19T03:26:37.067Z,48.30
2022-11-19T03:29:06.252Z,48.04
2022-11-19T03:31:34.614Z,48.45
2022-11-19T03:34:03.319Z,48.33
2022-11-19T03:36:35.449Z,48.32
2022-11-19T03:39:10.369Z,48.41
2022-11-19T03:41:38.924Z,48.34
2022-11-19T03:44:12.481Z,48.49
2022-11-19T03:46:40.168Z,48.87
2022-11-19T03:49:07.426Z,48.68
2022-11-19T03:52:03.190Z,48.67
2022-11-19T03:54:29.885Z,48.66
2022-11-19T03:56:57.958Z,49.28
2022-11-19T03:59:29.401Z,48.85
2022-11-19T04:01:58.802Z,49.20
2022-11-19T04:04:37.789Z,49.32
2022-11-19T04:07:15.127Z,49.49
2022-11-19T04:09:42.199Z,49.49
2022-11-19T04:12:14.027Z,49.31
2022-11-19T04:14:40.611Z,49.74
2022-11-19T04:17:07.297Z,49.90
2022-11-19T04:19:33.936Z,50.14
2022-11-19T04:22:00.522Z,50.24
2022-11-19T04:24:27.188Z,50.32
2022-11-19T04:26:53.780Z,50.65
2022-11-19T04:29:20.748Z,50.58
2022-11-19T04:31:47.574Z,50.38
2022-11-19T04:34:14.163Z,50.24
2022-11-19T04:36:42.250Z,50.43
2022-11-19T04:39:09.894Z,50.78
2022-11-19T04:41:36.747Z,50.68
2022-11-19T04:44:03.418Z,50.43
2022-11-19T04:46:30.138Z,50.54
2022-11-19T04:48:56.960Z,50.75
2022-11-19T04:51:23.824Z,50.81
2022-11-19T04:53:50.796Z,50.55
2022-11-19T04:56:17.487Z,50.47
2022-11-19T04:58:44.195Z,50.84
2022-11-19T05:01:11.260Z,50.98
2022-11-19T05:03:37.932Z,50.60
2022-11-19T05:06:04.588Z,51.05
2022-11-19T05:08:31.297Z,51.05
2022-11-19T05:10:57.885Z,50.57
2022-11-19T05:13:24.463Z,50.76
2022-11-19T05:15:51.138Z,50.93
2022-11-19T05:18:17.786Z,50.75
2022-11-19T05:20:44.389Z,51.22
2022-11-19T05:23:11.033Z,50.91
2022-11-19T05:25:37.744Z,51.04
2022-11-19T05:28:04.407Z,50.80
2022-11-19T05:30:31.061Z,51.03
2022-11-19T05:32:57.631Z,50.96
2022-11-19T05:35:24.236Z,50.77
2022-11-19T05:37:51.209Z,50.96
2022-11-19T05:40:18.401Z,50.63
2022-11-19T05:42:45.223Z,50.72
2022-11-19T05:45:11.976Z,50.80
2022-11-19T05:47:38.828Z,50.89
2022-11-19T05:50:05.806Z,50.67
2022-11-19T05:52:38.569Z,50.64
2022-11-19T05:55:05.448Z,50.62
2022-11-19T05:57:32.098Z,50.75
2022-11-19T05:59:58.680Z,50.65
2022-11-19T06:02:31.867Z,50.63
2022-11-19T06:04:58.597Z,50.95
2022-11-19T06:07:25.244Z,51.21
2022-11-19T06:09:51.838Z,50.58
2022-11-19T06:12:18.422Z,50.91
2022-11-19T06:14:45.026Z,51.21
2022-11-19T06:17:11.749Z,51.16
2022-11-19T06:19:38.321Z,51.35
2022-11-19T06:22:05.536Z,50.99
2022-11-19T06:24:32.127Z,51.04
2022-11-19T06:26:58.828Z,51.38
2022-11-19T06:29:25.887Z,51.33
2022-11-19T06:31:52.569Z,51.10
2022-11-19T06:34:19.143Z,51.02
2022-11-19T06:36:50.282Z,51.16
2022-11-19T06:39:17.629Z,51.06
2022-11-19T06:41:44.444Z,51.15
2022-11-19T06:44:11.106Z,51.24
2022-11-19T06:46:38.566Z,51.23
2022-11-19T06:49:06.013Z,50.93
2022-11-19T06:51:33.158Z,51.25
2022-11-19T06:53:59.999Z,51.05
2022-11-19T06:56:26.613Z,51.07
2022-11-19T06:58:56.163Z,51.13
2022-11-19T07:01:23.693Z,51.04
2022-11-19T07:03:50.381Z,51.26
2022-11-19T07:06:16.991Z,51.27
2022-11-19T07:08:43.634Z,51.55
2022-11-19T07:11:28.402Z,51.64
2022-11-19T07:13:58.508Z,51.98
2022-11-19T07:16:28.364Z,52.33
2022-11-19T07:18:56.580Z,52.28
2022-11-19T07:21:23.178Z,52.43
2022-11-19T07:23:49.790Z,52.01
2022-11-19T07:26:16.405Z,52.58
2022-11-19T07:28:43.099Z,52.63
2022-11-19T07:31:09.796Z,52.38
2022-11-19T07:33:39.254Z,52.64
2022-11-19T07:36:07.160Z,53.07
2022-11-19T07:38:36.918Z,52.72
2022-11-19T07:41:24.520Z,52.81
2022-11-19T07:43:51.185Z,52.67
2022-11-19T07:46:17.764Z,52.61
2022-11-19T07:48:44.379Z,53.03
2022-11-19T07:51:10.963Z,52.47
2022-11-19T07:53:37.621Z,52.89
2022-11-19T07:56:04.275Z,52.69
2022-11-19T07:58:30.840Z,52.74
2022-11-19T08:00:57.554Z,52.60
2022-11-19T08:03:24.201Z,52.75
2022-11-19T08:05:50.794Z,52.54
2022-11-19T08:08:17.423Z,52.34
2022-11-19T08:10:44.132Z,52.19
2022-11-19T08:13:10.780Z,52.21
2022-11-19T08:15:37.326Z,52.40
2022-11-19T08:18:13.106Z,52.37
2022-11-19T08:20:40.976Z,52.12
2022-11-19T08:23:07.547Z,52.17
2022-11-19T08:25:36.878Z,52.11
2022-11-19T08:28:04.104Z,51.72
2022-11-19T08:30:30.909Z,51.77
2022-11-19T08:32:57.512Z,51.53
2022-11-19T08:35:24.554Z,51.37
2022-11-19T08:37:51.632Z,51.27
2022-11-19T08:40:18.514Z,51.33
2022-11-19T08:43:00.576Z,51.53
2022-11-19T08:45:31.855Z,51.07
2022-11-19T08:47:59.141Z,51.33
2022-11-19T08:50:26.214Z,51.23
2022-11-19T08:52:55.753Z,51.43
2022-11-19T08:55:22.778Z,51.00
2022-11-19T08:57:49.503Z,51.35
2022-11-19T09:00:16.922Z,51.39
2022-11-19T09:02:43.841Z,50.52
2022-11-19T09:05:14.431Z,49.45
2022-11-19T09:07:41.576Z,49.06
2022-11-19T09:10:08.700Z,43.69
2022-11-19T09:12:35.386Z,44.02
2022-11-19T09:15:02.139Z,44.77
2022-11-19T09:17:28.724Z,44.81
2022-11-19T09:19:55.435Z,45.37
2022-11-19T09:22:22.042Z,45.30
2022-11-19T09:24:48.905Z,45.57
2022-11-19T09:27:15.563Z,45.95
2022-11-19T09:29:42.154Z,45.99
2022-11-19T09:32:08.861Z,46.07
2022-11-19T09:34:35.562Z,45.61
2022-11-19T09:37:02.194Z,45.74
2022-11-19T09:39:28.780Z,45.70
2022-11-19T09:42:06.767Z,45.69
2022-11-19T09:44:40.428Z,45.83
2022-11-19T09:47:22.198Z,46.07
2022-11-19T09:49:53.160Z,45.88
2022-11-19T09:52:21.692Z,45.88
2022-11-19T09:54:50.239Z,45.54
2022-11-19T09:57:21.909Z,45.55
2022-11-19T09:59:51.071Z,45.57
2022-11-19T10:02:18.857Z,45.87
2022-11-19T10:04:47.003Z,46.24
2022-11-19T10:07:22.709Z,46.15
2022-11-19T10:09:49.325Z,46.20
2022-11-19T10:12:24.811Z,46.41
2022-11-19T10:14:57.623Z,46.39
2022-11-19T10:17:28.259Z,46.43
2022-11-19T10:20:13.825Z,46.24
2022-11-19T10:23:03.653Z,46.00
2022-11-19T10:25:36.753Z,45.88
2022-11-19T10:28:26.997Z,46.35
2022-11-19T10:30:56.067Z,46.26
2022-11-19T10:33:34.013Z,46.18
2022-11-19T10:36:06.734Z,46.36
2022-11-19T10:38:37.047Z,46.52
2022-11-19T10:41:14.285Z,46.35
2022-11-19T10:43:46.500Z,46.58
2022-11-19T10:46:15.190Z,46.55
2022-11-19T10:48:42.589Z,47.06
2022-11-19T10:51:14.345Z,46.93
2022-11-19T10:53:42.690Z,47.08
2022-11-19T10:56:21.878Z,47.26
2022-11-19T10:58:56.112Z,46.93
2022-11-19T11:01:27.572Z,47.11
2022-11-19T11:04:14.470Z,46.94
2022-11-19T11:06:56.239Z,47.06
2022-11-19T11:09:29.713Z,46.84
2022-11-19T11:12:20.562Z,46.42
2022-11-19T11:14:54.369Z,46.68
2022-11-19T11:17:31.512Z,46.65
2022-11-19T11:19:58.104Z,46.51
2022-11-19T11:22:25.798Z,46.58
2022-11-19T11:24:52.385Z,46.61
2022-11-19T11:27:20.195Z,46.21
2022-11-19T11:29:46.824Z,46.34
2022-11-19T11:32:39.388Z,46.40
2022-11-19T11:35:09.940Z,46.51
2022-11-19T11:37:38.933Z,46.30
2022-11-19T11:40:06.389Z,46.53
2022-11-19T11:42:37.131Z,46.39
2022-11-19T11:45:03.987Z,46.17
2022-11-19T11:47:32.620Z,46.45
2022-11-19T11:49:59.490Z,46.28
2022-11-19T11:52:40.986Z,46.00
2022-11-19T11:55:14.153Z,46.41
2022-11-19T11:57:55.960Z,46.04
2022-11-19T12:00:42.965Z,46.33
2022-11-19T12:03:22.497Z,46.24
2022-11-19T12:06:08.011Z,45.88
2022-11-19T12:08:53.309Z,46.44
2022-11-19T12:11:56.630Z,46.56
2022-11-19T12:14:50.388Z,46.68
2022-11-19T12:17:19.837Z,46.82
2022-11-19T12:19:46.425Z,46.40
2022-11-19T12:22:20.685Z,46.31
2022-11-19T12:24:47.249Z,46.45
2022-11-19T12:27:28.891Z,46.30
2022-11-19T12:29:58.449Z,46.42
2022-11-19T12:32:40.928Z,46.56
2022-11-19T12:35:08.366Z,46.61
2022-11-19T12:38:00.991Z,46.19
2022-11-19T12:40:41.695Z,46.44
2022-11-19T12:43:11.645Z,46.10
2022-11-19T12:45:53.385Z,46.33
2022-11-19T12:48:43.949Z,46.19
2022-11-19T12:51:29.371Z,46.03
2022-11-19T12:54:19.483Z,45.81
2022-11-19T12:57:04.160Z,45.72
2022-11-19T12:59:48.109Z,45.52
2022-11-19T13:02:49.907Z,45.70
2022-11-19T13:05:23.262Z,45.66
2022-11-19T13:07:53.899Z,45.60
2022-11-19T13:10:25.998Z,45.24
2022-11-19T13:12:55.606Z,45.24
2022-11-19T13:15:24.844Z,45.40
2022-11-19T13:17:55.748Z,45.46
2022-11-19T13:20:22.382Z,45.34
2022-11-19T13:22:52.156Z,45.13
2022-11-19T13:25:30.895Z,45.05
2022-11-19T13:27:58.398Z,45.46
2022-11-19T13:30:29.676Z,45.02
2022-11-19T13:33:06.957Z,45.17
2022-11-19T13:35:45.538Z,45.03
2022-11-19T13:38:16.950Z,45.54
2022-11-19T13:40:46.010Z,45.17
2022-11-19T13:43:34.663Z,45.26
2022-11-19T13:46:04.181Z,45.64
2022-11-19T13:48:33.602Z,45.74
2022-11-19T13:51:03.739Z,45.38
2022-11-19T13:53:30.479Z,45.99
2022-11-19T13:55:57.889Z,46.65
2022-11-19T13:58:35.470Z,46.19
2022-11-19T14:01:08.786Z,45.91
2022-11-19T14:03:54.169Z,46.30
2022-11-19T14:06:29.932Z,46.19
2022-11-19T14:09:01.383Z,46.28
2022-11-19T14:11:31.090Z,45.99
2022-11-19T14:14:34.925Z,46.50
2022-11-19T14:17:35.237Z,46.39
2022-11-19T14:20:20.294Z,46.39
2022-11-19T14:23:15.197Z,46.20
2022-11-19T14:26:00.222Z,46.46
2022-11-19T14:28:43.524Z,46.25
2022-11-19T14:31:10.208Z,46.61
2022-11-19T14:33:48.941Z,46.91
2022-11-19T14:36:41.735Z,47.34
2022-11-19T14:39:15.705Z,46.46
2022-11-19T14:41:45.507Z,46.40
2022-11-19T14:44:14.960Z,48.04
2022-11-19T14:46:43.060Z,49.32
2022-11-19T14:49:24.842Z,48.21
2022-11-19T14:51:53.637Z,48.29
2022-11-19T14:54:31.808Z,48.35
2022-11-19T14:57:08.651Z,48.15
2022-11-19T14:59:37.082Z,48.45
2022-11-19T15:02:04.293Z,48.61
2022-11-19T15:04:36.593Z,48.69
2022-11-19T15:07:10.091Z,48.41
2022-11-19T15:09:58.152Z,48.73
2022-11-19T15:12:40.751Z,48.59
2022-11-19T15:15:19.399Z,48.44
2022-11-19T15:18:08.405Z,48.20
2022-11-19T15:20:57.500Z,48.80
2022-11-19T15:23:41.769Z,48.57
2022-11-19T15:26:08.489Z,48.61
2022-11-19T15:28:59.796Z,48.22
2022-11-19T15:31:29.497Z,48.40
2022-11-19T15:34:10.396Z,48.20
2022-11-19T15:36:41.708Z,48.66
2022-11-19T15:39:11.122Z,48.52
2022-11-19T15:41:40.747Z,48.54
2022-11-19T15:44:12.204Z,48.30
2022-11-19T15:46:41.257Z,48.12
2022-11-19T15:49:10.710Z,48.20
2022-11-19T15:51:50.021Z,48.30
2022-11-19T15:54:16.707Z,47.63
2022-11-19T15:56:49.767Z,47.63
2022-11-19T15:59:18.045Z,47.08
2022-11-19T16:01:47.173Z,47.44
2022-11-19T16:04:15.838Z,47.92
2022-11-19T16:06:49.482Z,47.97
2022-11-19T16:09:21.990Z,48.29
2022-11-19T16:12:07.914Z,48.44
2022-11-19T16:14:53.004Z,48.12
2022-11-19T16:17:36.905Z,48.37
2022-11-19T16:20:06.307Z,48.24
2022-11-19T16:22:39.982Z,48.28
2022-11-19T16:25:12.576Z,48.40
2022-11-19T16:27:41.028Z,48.10
2022-11-19T16:30:16.087Z,48.11
2022-11-19T16:32:45.247Z,48.34
2022-11-19T16:35:19.964Z,48.24
2022-11-19T16:37:47.680Z,47.95
2022-11-19T16:40:16.070Z,47.80
2022-11-19T16:42:45.769Z,48.03
2022-11-19T16:45:18.730Z,47.91
2022-11-19T16:47:56.141Z,48.23
2022-11-19T16:50:33.644Z,48.03
2022-11-19T16:53:01.126Z,47.89
2022-11-19T16:55:29.112Z,47.81
2022-11-19T16:57:57.270Z,48.14
2022-11-19T17:00:25.318Z,47.80
2022-11-19T17:02:52.161Z,47.96
2022-11-19T17:05:20.899Z,47.64
2022-11-19T17:07:51.577Z,47.51
2022-11-19T17:10:24.675Z,47.00
2022-11-19T17:12:55.529Z,47.31
2022-11-19T17:15:28.127Z,47.46
2022-11-19T17:17:54.808Z,46.86
2022-11-19T17:20:27.298Z,46.88
2022-11-19T17:22:54.298Z,46.77
2022-11-19T17:25:20.890Z,46.84
2022-11-19T17:27:53.119Z,47.08
2022-11-19T17:30:19.797Z,46.51
2022-11-19T17:32:48.012Z,46.89
2022-11-19T17:35:34.020Z,46.65
2022-11-19T17:38:09.585Z,46.51
2022-11-19T17:40:36.355Z,46.83
2022-11-19T17:43:21.741Z,46.70
2022-11-19T17:45:48.378Z,46.47
2022-11-19T17:48:20.897Z,46.40
2022-11-19T17:50:47.489Z,46.40
2022-11-19T17:53:14.104Z,46.57
2022-11-19T17:55:42.472Z,46.48
2022-11-19T17:58:09.223Z,46.46
2022-11-19T18:00:35.893Z,46.02
2022-11-19T18:03:03.363Z,46.09
2022-11-19T18:05:33.789Z,45.99
2022-11-19T18:08:00.490Z,45.98
2022-11-19T18:10:27.105Z,46.25
2022-11-19T18:12:53.667Z,45.73
2022-11-19T18:15:21.062Z,45.88
2022-11-19T18:17:47.657Z,45.90
2022-11-19T18:20:14.293Z,45.65
2022-11-19T18:22:41.313Z,45.53
2022-11-19T18:25:13.664Z,45.58
2022-11-19T18:27:40.525Z,45.75
2022-11-19T18:30:07.337Z,45.88
2022-11-19T18:32:33.944Z,45.72
2022-11-19T18:35:01.919Z,45.72
2022-11-19T18:37:29.498Z,45.54
2022-11-19T18:39:56.296Z,45.88
2022-11-19T18:42:35.572Z,45.85
2022-11-19T18:45:02.174Z,45.64
2022-11-19T18:47:28.738Z,46.09
2022-11-19T18:49:55.326Z,45.92
2022-11-19T18:52:36.432Z,45.93
2022-11-19T18:55:03.039Z,46.28
2022-11-19T18:57:29.698Z,45.94
2022-11-19T18:59:56.295Z,46.01
2022-11-19T19:02:32.109Z,46.28
2022-11-19T19:04:58.840Z,46.04
2022-11-19T19:07:25.900Z,45.90
2022-11-19T19:09:52.633Z,46.11
2022-11-19T19:12:19.323Z,46.44
2022-11-19T19:14:47.404Z,46.42
2022-11-19T19:17:14.680Z,46.41
2022-11-19T19:19:41.828Z,46.44
2022-11-19T19:22:08.557Z,46.13
2022-11-19T19:24:35.159Z,46.01
2022-11-19T19:27:02.079Z,46.01
2022-11-19T19:29:28.892Z,45.96
2022-11-19T19:31:55.532Z,46.02
2022-11-19T19:34:22.258Z,46.17
2022-11-19T19:36:52.993Z,46.13
2022-11-19T19:39:20.604Z,46.15
2022-11-19T19:41:49.355Z,46.26
2022-11-19T19:44:16.382Z,46.22
2022-11-19T19:46:43.038Z,46.33
2022-11-19T19:49:09.637Z,46.15
2022-11-19T19:51:36.454Z,46.27
2022-11-19T19:54:03.156Z,45.88
2022-11-19T19:56:31.220Z,45.98
2022-11-19T19:58:58.267Z,46.04
2022-11-19T20:01:29.158Z,46.20
2022-11-19T20:04:00.811Z,46.00
2022-11-19T20:06:27.502Z,45.98
2022-11-19T20:08:54.148Z,46.03
2022-11-19T20:11:21.966Z,45.84
2022-11-19T20:13:48.782Z,45.86
2022-11-19T20:16:18.125Z,45.81
2022-11-19T20:18:45.467Z,45.94
2022-11-19T20:21:19.829Z,45.88
2022-11-19T20:23:47.448Z,45.92
2022-11-19T20:26:18.385Z,45.95
2022-11-19T20:28:45.158Z,45.54
2022-11-19T20:31:19.994Z,45.63
2022-11-19T20:33:47.943Z,45.87
2022-11-19T20:36:15.737Z,46.09
2022-11-19T20:38:43.304Z,45.83
2022-11-19T20:41:29.847Z,45.85
2022-11-19T20:44:15.569Z,45.85
2022-11-19T20:46:42.511Z,45.78
2022-11-19T20:49:10.616Z,45.82
2022-11-19T20:51:40.997Z,46.06
2022-11-19T20:54:09.067Z,46.31
2022-11-19T20:56:36.560Z,46.05
2022-11-19T20:59:03.513Z,46.31
2022-11-19T21:01:31.532Z,46.35
2022-11-19T21:03:58.416Z,46.14
2022-11-19T21:06:25.200Z,45.95
2022-11-19T21:08:52.363Z,46.50
2022-11-19T21:11:19.296Z,46.37
2022-11-19T21:13:45.993Z,46.16
2022-11-19T21:16:14.119Z,46.37
2022-11-19T21:18:42.739Z,46.10
2022-11-19T21:21:10.812Z,46.38
2022-11-19T21:23:38.098Z,46.38
2022-11-19T21:26:06.490Z,46.65
2022-11-19T21:28:33.589Z,46.52
2022-11-19T21:31:00.570Z,46.73
2022-11-19T21:33:27.318Z,46.48
2022-11-19T21:36:05.137Z,46.64
2022-11-19T21:38:31.852Z,46.49
2022-11-19T21:41:30.397Z,46.54
2022-11-19T21:44:21.026Z,46.81
2022-11-19T21:46:48.257Z,46.78
2022-11-19T21:49:14.872Z,46.67
2022-11-19T21:51:41.606Z,46.71
2022-11-19T21:54:08.349Z,46.61
2022-11-19T21:56:38.458Z,46.78
2022-11-19T21:59:05.635Z,46.83
2022-11-19T22:01:32.276Z,46.90
2022-11-19T22:03:59.015Z,46.96
2022-11-19T22:06:25.699Z,46.60
2022-11-19T22:08:52.373Z,46.63
2022-11-19T22:11:31.931Z,47.10
2022-11-19T22:14:02.962Z,46.64
2022-11-19T22:16:30.393Z,46.73
2022-11-19T22:18:57.092Z,47.14
2022-11-19T22:21:23.765Z,47.28
2022-11-19T22:23:52.873Z,46.83
2022-11-19T22:26:19.564Z,47.35
2022-11-19T22:28:46.242Z,47.25
2022-11-19T22:31:13.664Z,46.38
2022-11-19T22:33:40.582Z,46.70
2022-11-19T22:36:10.163Z,46.75
2022-11-19T22:38:37.638Z,47.37
2022-11-19T22:41:06.524Z,47.19
2022-11-19T22:43:33.666Z,47.14
2022-11-19T22:46:00.605Z,47.50
2022-11-19T22:48:32.069Z,47.41
2022-11-19T22:50:59.018Z,47.52
2022-11-19T22:53:25.798Z,47.34
2022-11-19T22:55:52.402Z,47.32
2022-11-19T22:58:19.010Z,47.58
2022-11-19T23:00:46.718Z,47.58
2022-11-19T23:03:13.392Z,47.71
2022-11-19T23:05:40.186Z,47.48
2022-11-19T23:08:07.907Z,47.30
2022-11-19T23:10:34.651Z,47.51
2022-11-19T23:13:20.698Z,47.37
2022-11-19T23:15:59.928Z,47.38
2022-11-19T23:18:27.153Z,47.73
2022-11-19T23:20:57.473Z,47.66
2022-11-19T23:23:24.943Z,47.25
2022-11-19T23:26:12.331Z,47.45
2022-11-19T23:28:39.551Z,47.21
2022-11-19T23:31:08.320Z,47.24
2022-11-19T23:33:35.729Z,46.99
2022-11-19T23:36:07.031Z,47.07
2022-11-19T23:38:35.971Z,47.30
2022-11-19T23:41:04.611Z,46.80
2022-11-19T23:43:33.798Z,46.78
2022-11-19T23:46:08.442Z,46.54
2022-11-19T23:48:35.906Z,47.07
2022-11-19T23:51:03.492Z,46.59
2022-11-19T23:53:30.602Z,46.83
2022-11-19T23:55:58.035Z,47.26
2022-11-19T23:58:25.084Z,47.08
